Latest Coastal Weather Observations for Williamtown

IDN60701

Issued at 2:35 pm EDT Wednesday 22 October 2014 (issued every 10 minutes, with the page automatically refreshed every 10 minutes)

About coastal observations | Map of coastal stations | Coastal observations for NSW | Marine services | Other Formats
Station Details ID: 061078 Name: WILLIAMTOWN RAAF Lat: -32.79 Lon: 151.84 Height: 9.0 m
Data from the previous 72 hours. | See also: Recent months at Williamtown
Date/Time
EDT
Temp

°C
Wind Pressure Rain
since 9am
mm
Weather Cloud Vis
km
Sea
Height
m
Swell
Dir
 
Speed
knots
Gust
knots
hPa Trend Height
m
Period
s
Dir
22/02:30pm 23.6 ENE 9 14 1022.5 - 0.0 - Mostly clear 10 - - - -
22/02:00pm 22.9 ENE 7 12 1023.1 - 0.0 - Mostly clear 10 - - - -
22/01:30pm 21.4 SE 13 18 1023.7 - 0.0 - Partly cloudy 10 - - - -
22/01:12pm 21.5 ESE 17 21 1024.2 - 0.0 - Partly cloudy 10 - - - -
22/01:00pm 22.4 SE 6 9 1024.4 - 0.0 - Partly cloudy 10 - - - -
22/12:30pm 21.1 NE 6 11 1024.8 - 0.0 - Partly cloudy 10 - - - -
22/12:00pm 20.9 ENE 9 13 1025.7 F 0.0 Fine Partly cloudy 40 - - - -
22/11:30am 20.6 ENE 8 16 1025.9 - 0.0 - Partly cloudy 10 - - - -
22/11:00am 21.6 NE 9 14 1026.3 - 0.0 - Partly cloudy 10 - - - -
22/10:30am 19.8 NNE 10 14 1026.7 - 0.0 - Partly cloudy 10 - - - -
22/10:00am 19.3 NNE 7 11 1027.1 - 0.0 - Mostly clear 10 - - - -
22/09:30am 18.6 NNE 7 10 1027.3 - 0.0 - Mostly clear 10 - - - -
22/09:00am 17.3 N 6 8 1027.5 F 0.0 Haze Partly cloudy 30 - - - -
22/08:30am 16.2 N 5 6 1027.4 - 0.0 - Mostly clear 10 - - - -
22/08:00am 14.8 CALM 0 0 1027.4 - 0.0 - Mostly clear 10 - - - -
22/07:30am 13.7 CALM 0 0 1027.4 - 0.0 - Mostly clear 10 - - - -
22/07:00am 13.0 CALM 0 0 1027.3 - 0.0 - Mostly clear 10 - - - -
22/06:30am 12.4 CALM 0 0 1027.2 - 0.0 - Mostly clear 10 - - - -
22/06:00am 12.7 CALM 0 0 1027.1 F 0.0 Distant precip. Mostly cloudy 20 - - - -
22/05:30am 13.1 CALM 0 0 1027.0 - 0.0 - Cloudy 10 - - - -
22/05:00am 12.9 CALM 0 0 1027.2 - 0.0 - Cloudy 10 - - - -
22/04:30am 12.7 CALM 0 0 1027.4 - 0.0 - Cloudy 10 - - - -
22/04:00am 13.2 NNE 1 3 1027.6 - 0.0 - Partly cloudy 10 - - - -
22/03:30am 13.3 NNE 5 8 1028.2 - 0.0 - Partly cloudy 10 - - - -
22/03:00am 12.7 CALM 0 0 1028.3 - 0.0 - Cloudy 10 - - - -
22/02:30am 12.6 CALM 0 0 1028.5 - 0.0 - Cloudy 10 - - - -
22/02:00am 12.9 CALM 0 0 1029.0 - 0.0 - Cloudy 10 - - - -
22/01:30am 12.5 CALM 0 0 1029.4 - 0.0 - Cloudy 10 - - - -
22/01:00am 12.8 CALM 0 0 1029.7 - 0.0 - Cloudy 10 - - - -
22/12:30am 13.0 CALM 0 0 1030.2 - 0.0 - Cloudy 10 - - - -
22/12:00am 13.3 NNW 0 0 1030.5 - 0.0 - Cloudy 10 - - - -
 
Date/Time
EDT
Temp

°C
Wind Pressure Rain
since 9am
mm
Weather Cloud Vis
km
Sea
Height
m
Swell
Dir
 
Speed
knots
Gust
knots
hPa Trend Height
m
Period
s
Dir
21/11:30pm 13.6 CALM 0 0 1030.6 - 0.0 - Partly cloudy 10 - - - -
21/11:00pm 14.1 CALM 0 0 1030.7 - 0.0 - Cloudy 10 - - - -
21/10:30pm 14.9 E 6 8 1030.9 - 0.0 - Cloudy 10 - - - -
21/10:00pm 12.5 CALM 0 0 1031.2 - 0.0 - Partly cloudy 10 - - - -
21/09:30pm 14.4 ENE 3 5 1031.2 - 0.0 - Partly cloudy 10 - - - -
21/09:00pm 15.4 E 5 7 1031.2 - 0.0 - Cloudy 10 - - - -
21/08:30pm 15.6 E 6 8 1030.9 - 0.0 - Cloudy 10 - - - -
21/08:00pm 15.8 E 7 11 1030.6 - 0.0 - Mostly clear 10 - - - -
21/07:30pm 15.6 E 7 8 1030.3 - 0.0 - Mostly clear 10 - - - -
21/07:00pm 16.0 ESE 7 8 1030.3 - 0.0 - Mostly clear 10 - - - -
21/06:30pm 16.9 E 10 13 1030.1 - 0.0 - Mostly clear 10 - - - -
21/06:00pm 17.4 ESE 11 15 1030.0 - 0.0 - Mostly clear 10 - - - -
21/05:30pm 17.8 ESE 11 14 1029.8 - 0.0 - Mostly clear 10 - - - -
21/05:00pm 18.0 E 11 14 1029.7 - 0.0 - Mostly clear 10 - - - -
21/04:30pm 17.4 ESE 12 18 1029.8 - 0.0 - Partly cloudy 10 - - - -
21/04:00pm 18.2 ESE 10 14 1029.9 - 0.0 - Partly cloudy 10 - - - -
21/03:30pm 18.6 SE 9 12 1030.0 - 0.0 - Partly cloudy 10 - - - -
21/03:00pm 18.4 ESE 10 13 1030.6 R 0.0 Distant precip. Mostly cloudy 25 - - - -
21/02:30pm 18.2 ESE 9 14 1030.8 - 0.0 - Partly cloudy 10 - - - -
21/02:00pm 18.1 ESE 10 15 1031.2 - 0.0 - Partly cloudy 10 - - - -
21/01:30pm 18.3 ESE 11 17 1031.5 - 0.0 - Partly cloudy 10 - - - -
21/01:00pm 18.5 ESE 9 15 1031.8 - 0.0 - Partly cloudy 10 - - - -
21/12:30pm 18.2 SE 11 15 1032.0 - 0.0 - Partly cloudy 10 - - - -
21/12:00pm 18.3 SE 10 15 1032.3 R 0.0 Haze Mostly cloudy 25 - - - -
21/11:30am 18.1 ESE 10 14 1032.3 - 0.0 - Partly cloudy 10 - - - -
21/11:00am 17.9 ESE 11 13 1032.5 - 0.0 - Partly cloudy 10 - - - -
21/10:30am 17.7 ESE 10 15 1032.7 - 0.0 - Partly cloudy 10 - - - -
21/10:00am 17.6 ESE 10 12 1032.6 - 0.0 - Partly cloudy 10 - - - -
21/09:30am 17.0 E 10 14 1032.6 - 0.0 - Partly cloudy 10 - - - -
21/09:00am 17.0 E 10 14 1032.3 R 0.8 Distant precip. Mostly cloudy 15 - - - -
21/08:30am 16.8 ESE 9 12 1031.9 - 0.8 - Partly cloudy 10 - - - -
21/08:00am 16.6 ESE 8 11 1031.6 - 0.8 - Partly cloudy 10 - - - -
21/07:30am 16.5 ESE 8 10 1031.3 - 0.8 - Partly cloudy 10 - - - -
21/07:00am 16.4 E 7 9 1030.9 - 0.8 - Partly cloudy 10 - - - -
21/06:30am 16.3 E 8 10 1030.7 - 0.8 - Partly cloudy 10 - - - -
21/06:00am 16.3 E 9 12 1030.4 F 0.8 Distant precip. Mostly cloudy 15 - - - -
21/05:30am 15.9 ESE 8 11 1030.1 - 0.8 - Cloudy 10 - - - -
21/05:00am 16.0 ESE 8 11 1030.0 - 0.8 - Partly cloudy 10 - - - -
21/04:30am 16.1 ESE 7 9 1030.1 - 0.8 - Cloudy 10 - - - -
21/04:00am 16.1 ESE 9 11 1030.1 - 0.8 - Cloudy 10 - - - -
21/03:30am 16.2 ESE 6 8 1030.1 - 0.8 - Partly cloudy 10 - - - -
21/03:00am 16.0 ESE 6 9 1030.3 - 0.8 - Cloudy 10 - - - -
21/02:30am 16.0 E 4 5 1030.4 - 0.6 - Partly cloudy 10 - - - -
21/02:00am 16.4 E 6 7 1030.4 - 0.6 - Partly cloudy 10 - - - -
21/01:30am 16.5 E 6 8 1030.7 - 0.6 - Partly cloudy 10 - - - -
21/01:00am 16.6 E 7 9 1031.0 - 0.6 - Partly cloudy 10 - - - -
21/12:30am 16.7 E 7 10 1031.2 - 0.6 - Cloudy 10 - - - -
21/12:00am 16.8 ESE 8 14 1031.4 - 0.6 - Cloudy 10 - - - -
 
Date/Time
EDT
Temp

°C
Wind Pressure Rain
since 9am
mm
Weather Cloud Vis
km
Sea
Height
m
Swell
Dir
 
Speed
knots
Gust
knots
hPa Trend Height
m
Period
s
Dir
20/11:30pm 16.8 ESE 9 13 1031.3 - 0.6 - Partly cloudy 10 - - - -
20/11:00pm 16.6 ESE 9 12 1031.4 - 0.6 - Cloudy 10 - - - -
20/10:30pm 16.5 ESE 8 11 1031.5 - 0.6 - Partly cloudy 10 - - - -
20/10:00pm 16.6 ESE 10 15 1031.5 - 0.6 - Cloudy 10 - - - -
20/09:30pm 16.3 SE 10 14 1031.4 - 0.6 - Partly cloudy 10 - - - -
20/09:25pm 16.1 SE 9 12 1031.4 - 0.6 - Partly cloudy 10 - - - -
20/09:10pm 15.5 SE 12 17 1031.3 - 0.6 - Partly cloudy 6 - - - -
20/09:00pm 15.8 SE 9 13 1031.3 - 0.6 - Cloudy 10 - - - -
20/08:30pm 16.9 SE 10 14 1030.6 - 0.6 - Partly cloudy 10 - - - -
20/08:00pm 16.6 SSE 12 16 1030.4 - 0.6 - Partly cloudy 10 - - - -
20/07:30pm 16.6 SE 11 16 1030.0 - 0.6 - Partly cloudy 10 - - - -
20/07:00pm 15.7 SSE 10 17 1029.7 - 0.6 Showers Partly cloudy 8 - - - -
20/06:30pm 16.5 SSE 14 18 1029.4 - 0.6 - Partly cloudy 10 - - - -
20/06:00pm 16.5 SSE 14 20 1029.3 - 0.6 - Cloudy 8 - - - -
20/05:30pm 17.4 SSE 11 19 1029.0 - 0.6 - Partly cloudy 10 - - - -
20/05:00pm 17.6 SSE 13 17 1028.9 - 0.4 - Mostly clear 10 - - - -
20/04:30pm 16.7 S 15 19 1028.8 - 0.4 - Mostly clear 9 - - - -
20/04:19pm 16.9 S 15 19 1028.6 - 0.4 - Partly cloudy 10 - - - -
20/04:07pm 17.1 S 15 20 1028.7 - 0.4 Showers Partly cloudy 6 - - - -
20/04:00pm 17.8 S 16 20 1028.7 - 0.0 Showers Partly cloudy 8 - - - -
20/03:30pm 18.0 SSW 11 15 1028.6 - 0.0 - Mostly clear 10 - - - -
20/03:00pm 17.1 S 13 17 1029.1 R 0.0 Distant precip. Mostly cloudy 15 - - - -
20/02:30pm 20.3 S 14 20 1028.8 - 0.0 - Mostly clear 10 - - - -
20/02:00pm 20.5 S 15 19 1029.3 - 0.0 - Mostly clear 10 - - - -
20/01:30pm 20.6 S 15 20 1029.5 - 0.0 - Mostly clear 10 - - - -
20/01:00pm 19.3 S 18 25 1029.7 - 0.0 - Mostly clear 10 - - - -
20/12:40pm 20.2 SSW 19 30 1029.7 - 0.0 - Partly cloudy 10 - - - -
20/12:30pm 20.6 S 17 22 1029.7 - 0.0 - Partly cloudy 10 - - - -
20/12:00pm 20.2 S 20 27 1029.8 R 0.0 Haze Mostly cloudy 10 - - - -
20/11:30am 20.8 S 21 29 1029.5 - 0.0 - Mostly clear 10 - - - -
20/11:22am 20.1 S 19 29 1029.5 - 0.0 - Partly cloudy 10 - - - -
20/11:00am 19.6 S 18 26 1029.3 - 0.0 - Partly cloudy 10 - - - -
20/10:30am 19.3 S 19 30 1028.9 - 0.0 - Mostly clear 10 - - - -
20/10:00am 19.7 S 19 31 1028.2 - 0.0 - Mostly cloudy 9 - - - -
20/09:30am 19.9 S 20 28 1027.4 - 0.0 - Mostly cloudy 8 - - - -
20/09:22am 19.8 S 21 31 1027.2 - 0.0 - Mostly cloudy 8 - - - -
20/09:00am 19.9 S 22 30 1026.7 R 0.0 Haze Mostly cloudy 10 - - - -
20/08:32am 20.6 SSW 20 30 1025.6 - 0.0 - Partly cloudy 10 - - - -
20/08:30am 20.6 SSW 20 29 1025.6 - 0.0 - Partly cloudy 10 - - - -
20/08:20am 20.4 SSW 16 27 1025.5 - 0.0 - Partly cloudy 10 - - - -
20/08:00am 17.2 WSW 10 14 1025.1 - 0.0 - - 10 - - - -
20/07:30am 15.1 NW 6 8 1023.4 - 0.0 - - 10 - - - -
20/07:00am 13.6 NW 4 6 1022.9 - 0.0 - - 10 - - - -
20/06:30am 11.7 NNW 4 5 1022.6 - 0.0 - - 10 - - - -
20/06:00am 11.5 NNW 6 7 1022.3 - 0.0 - Mostly clear 10 - - - -
20/05:30am 11.0 CALM 0 0 1022.1 - 0.0 - - 10 - - - -
20/05:00am 11.3 CALM 0 0 1021.9 - 0.0 - - 10 - - - -
20/04:30am 11.6 CALM 0 0 1021.8 - 0.0 - - 10 - - - -
20/04:00am 11.5 CALM 0 0 1021.6 - 0.0 - - 10 - - - -
20/03:30am 10.5 CALM 0 0 1021.8 - 0.0 - - 10 - - - -
20/03:00am 10.8 CALM 0 0 1022.1 - 0.0 - - 10 - - - -
20/02:30am 12.1 CALM 0 0 1022.1 - 0.0 - - 10 - - - -
20/02:00am 12.6 CALM 0 0 1022.3 - 0.0 - - 10 - - - -
20/01:30am 14.0 CALM 0 0 1022.6 - 0.0 - - 10 - - - -
20/01:00am 14.0 CALM 0 0 1023.0 - 0.0 - - 10 - - - -
20/12:30am 14.4 CALM 0 0 1023.3 - 0.0 - - 10 - - - -
20/12:00am 14.4 CALM 0 0 1023.4 - 0.0 - - 10 - - - -
 
Date/Time
EDT
Temp

°C
Wind Pressure Rain
since 9am
mm
Weather Cloud Vis
km
Sea
Height
m
Swell
Dir
 
Speed
knots
Gust
knots
hPa Trend Height
m
Period
s
Dir
19/11:30pm 14.9 CALM 0 0 1023.7 - 0.0 - - 10 - - - -
19/11:00pm 16.1 NNE 6 7 1023.7 - 0.0 - - 10 - - - -
19/10:30pm 16.0 NNE 5 7 1024.0 - 0.0 - - 10 - - - -
19/10:00pm 16.5 NE 5 7 1024.1 - 0.0 - - 10 - - - -
19/09:30pm 17.3 NNE 6 9 1024.0 - 0.0 - - 10 - - - -
19/09:00pm 17.7 NE 7 12 1023.9 - 0.0 - - 10 - - - -
19/08:30pm 18.1 NE 8 13 1023.5 - 0.0 - - 10 - - - -
19/08:00pm 18.3 NE 9 13 1023.4 - 0.0 - - 10 - - - -
19/07:30pm 18.8 ENE 9 12 1023.2 - 0.0 - - 10 - - - -
19/07:00pm 19.5 ENE 9 13 1023.0 - 0.0 - - 10 - - - -
19/06:30pm 20.3 ENE 9 15 1022.8 - 0.0 - - 10 - - - -
19/06:00pm 21.0 ENE 11 16 1022.9 - 0.0 - - 10 - - - -
19/05:30pm 22.0 ENE 12 17 1022.8 - 0.0 - - 10 - - - -
19/05:00pm 22.4 ENE 10 14 1022.9 - 0.0 - - 10 - - - -
19/04:30pm 23.5 ENE 9 14 1022.9 - 0.0 - - 10 - - - -
19/04:00pm 24.6 ESE 9 13 1022.9 - 0.0 - - 10 - - - -
19/03:30pm 24.2 SE 13 16 1023.0 - 0.0 - - 10 - - - -
19/03:00pm 24.4 ESE 8 13 1023.6 - 0.0 - - 10 - - - -

Other Formats:

Comma delimited format used in spreadsheet applications
http://www.bom.gov.au/fwo/IDN60701/IDN60701.94776.axf

JavaScript Object Notation format (JSON) in row-major order
http://www.bom.gov.au/fwo/IDN60701/IDN60701.94776.json